createdAt,value
2023-05-03T11:09:18.260Z,298.13
2023-05-03T11:10:18.160Z,298.13
2023-05-03T11:11:18.124Z,298.13
2023-05-03T11:12:18.135Z,292.50
2023-05-03T11:13:18.153Z,298.13
2023-05-03T11:14:18.113Z,298.13
2023-05-03T11:15:18.060Z,292.50
2023-05-03T11:16:18.099Z,286.88
2023-05-03T11:17:18.039Z,292.50
2023-05-03T11:18:18.036Z,286.88
2023-05-03T11:19:18.014Z,286.88
2023-05-03T11:20:18.011Z,292.50
2023-05-03T11:21:17.970Z,292.50
2023-05-03T11:22:17.965Z,292.50
2023-05-03T11:23:17.945Z,303.75
2023-05-03T11:24:17.976Z,298.13
2023-05-03T11:25:17.941Z,298.13
2023-05-03T11:26:17.913Z,303.75
2023-05-03T11:27:17.914Z,298.13
2023-05-03T11:28:17.897Z,298.13
2023-05-03T11:29:17.906Z,303.75
2023-05-03T11:30:17.862Z,298.13
2023-05-03T11:31:17.914Z,298.13
2023-05-03T11:32:17.939Z,303.75
2023-05-03T11:33:17.831Z,303.75
2023-05-03T11:34:17.823Z,309.38
2023-05-03T11:35:17.808Z,309.38
2023-05-03T11:36:17.825Z,309.38
2023-05-03T11:37:17.776Z,309.38
2023-05-03T11:38:17.791Z,309.38
2023-05-03T11:39:18.968Z,309.38
2023-05-03T11:40:17.759Z,309.38
2023-05-03T11:41:17.809Z,315.00
2023-05-03T11:42:17.925Z,315.00
2023-05-03T11:43:17.728Z,315.00
2023-05-03T11:44:18.570Z,309.38
2023-05-03T11:45:17.705Z,309.38
2023-05-03T11:46:17.753Z,315.00
2023-05-03T11:47:17.853Z,315.00
2023-05-03T11:48:17.756Z,315.00
2023-05-03T11:49:17.631Z,315.00
2023-05-03T11:50:17.629Z,315.00
2023-05-03T11:51:17.606Z,303.75
2023-05-03T11:52:17.592Z,309.38
2023-05-03T11:53:17.581Z,326.25
2023-05-03T11:54:25.058Z,331.88
2023-05-03T11:55:17.557Z,337.50
2023-05-03T11:56:17.525Z,343.13
2023-05-03T11:57:17.552Z,348.75
2023-05-03T11:58:17.516Z,343.13
2023-05-03T11:59:17.527Z,343.13
2023-05-03T12:00:17.580Z,343.13
2023-05-03T12:01:17.500Z,337.50
2023-05-03T12:02:17.554Z,331.88
2023-05-03T12:03:17.708Z,331.88
2023-05-03T12:04:17.592Z,331.88
2023-05-03T12:05:18.070Z,331.88
2023-05-03T12:06:17.891Z,331.88
2023-05-03T12:07:19.949Z,337.50
2023-05-03T12:08:18.484Z,343.13
2023-05-03T12:09:18.680Z,348.75
2023-05-03T12:10:21.923Z,354.38
2023-05-03T12:11:18.221Z,360.00
2023-05-03T12:12:19.743Z,371.25
2023-05-03T12:13:17.762Z,365.63
2023-05-03T12:14:17.419Z,365.63
2023-05-03T12:15:17.591Z,365.63
2023-05-03T12:16:18.658Z,365.63
2023-05-03T12:17:19.000Z,371.25
2023-05-03T12:18:19.018Z,360.00
2023-05-03T12:19:17.656Z,360.00
2023-05-03T12:22:24.992Z,365.63
2023-05-03T12:23:17.399Z,360.00
2023-05-03T12:24:20.052Z,365.63
2023-05-03T12:25:20.110Z,365.63
2023-05-03T12:26:18.861Z,365.63
2023-05-03T12:27:19.385Z,371.25
2023-05-03T12:28:20.278Z,382.50
2023-05-03T12:29:19.272Z,388.13
2023-05-03T12:30:17.932Z,388.13
2023-05-03T12:31:18.065Z,393.75
2023-05-03T12:32:17.152Z,405.00
2023-05-03T12:33:17.628Z,416.25
2023-05-03T12:34:31.520Z,427.50
2023-05-03T12:35:19.746Z,427.50
2023-05-03T12:36:18.527Z,421.88
2023-05-03T12:37:17.598Z,421.88
2023-05-03T12:38:17.849Z,421.88
2023-05-03T12:39:17.186Z,410.63
2023-05-03T12:40:32.382Z,416.25
2023-05-03T12:41:32.414Z,410.63
2023-05-03T12:42:17.034Z,405.00
2023-05-03T12:43:16.997Z,405.00
2023-05-03T12:44:17.396Z,405.00
2023-05-03T12:45:20.860Z,410.63
2023-05-03T12:46:32.304Z,410.63
2023-05-03T12:48:17.129Z,410.63
2023-05-03T12:49:17.123Z,410.63
2023-05-03T12:50:18.823Z,410.63
2023-05-03T12:51:20.356Z,410.63
2023-05-03T12:53:17.783Z,410.63
2023-05-03T12:54:19.075Z,416.25
2023-05-03T12:55:18.431Z,416.25
2023-05-03T12:56:17.062Z,421.88
2023-05-03T12:57:22.658Z,427.50
2023-05-03T12:59:39.205Z,433.13
2023-05-03T13:00:20.968Z,444.38
2023-05-03T13:02:05.392Z,461.25
2023-05-03T13:03:19.831Z,517.50
2023-05-03T13:04:41.404Z,562.50
2023-05-03T13:05:29.655Z,613.13
2023-05-03T13:06:16.937Z,680.63
2023-05-03T13:07:17.148Z,810.00
2023-05-03T13:08:21.408Z,1445.63
2023-05-03T13:09:20.079Z,2328.75
2023-05-03T13:11:16.663Z,3155.63
2023-05-03T13:12:16.718Z,3234.38
2023-05-03T13:13:16.610Z,3116.25
2023-05-03T13:14:16.585Z,3183.75
2023-05-03T13:15:16.586Z,3211.88
2023-05-03T13:16:16.649Z,3307.50
2023-05-03T13:17:16.655Z,3330.00
2023-05-03T13:18:16.588Z,3211.88
2023-05-03T13:19:16.564Z,3268.13
2023-05-03T13:20:16.522Z,3206.25
2023-05-03T13:21:16.536Z,3054.38
2023-05-03T13:22:16.533Z,3088.13
2023-05-03T13:23:16.514Z,3273.75
2023-05-03T13:24:16.493Z,3144.38
2023-05-03T13:25:16.504Z,2953.13
2023-05-03T13:26:16.481Z,3093.75
2023-05-03T13:27:16.482Z,3093.75
2023-05-03T13:28:16.452Z,2604.38
2023-05-03T13:29:16.452Z,2238.75
2023-05-03T13:30:16.437Z,2756.25
2023-05-03T13:31:16.438Z,3296.25
2023-05-03T13:32:16.555Z,3211.88
2023-05-03T13:33:16.484Z,3245.63
2023-05-03T13:34:16.384Z,3577.50
2023-05-03T13:35:16.432Z,3476.25
2023-05-03T13:36:16.381Z,3251.25
2023-05-03T13:37:16.383Z,3076.88
2023-05-03T13:38:16.360Z,2936.25
2023-05-03T13:39:16.507Z,2986.88
2023-05-03T13:40:16.342Z,3105.00
2023-05-03T13:41:16.324Z,3301.88
2023-05-03T13:42:16.345Z,3459.38
2023-05-03T13:43:16.342Z,3425.63
2023-05-03T13:44:16.313Z,3375.00
2023-05-03T13:45:16.316Z,3121.88
2023-05-03T13:46:16.383Z,2750.63
2023-05-03T13:47:16.303Z,2542.50
2023-05-03T13:48:18.468Z,2486.25
2023-05-03T13:49:16.313Z,2463.75
2023-05-03T13:50:16.245Z,2413.13
2023-05-03T13:51:16.266Z,2413.13
2023-05-03T13:52:16.273Z,2278.13
2023-05-03T13:53:16.262Z,2171.25
2023-05-03T13:54:16.236Z,2171.25
2023-05-03T13:55:16.213Z,2176.88
2023-05-03T13:56:16.206Z,2188.13
2023-05-03T13:57:16.228Z,2199.38
2023-05-03T13:58:16.197Z,2092.50
2023-05-03T13:59:16.189Z,2047.50
2023-05-03T14:00:16.190Z,2092.50
2023-05-03T14:01:16.227Z,2092.50
2023-05-03T14:02:16.275Z,2092.50
2023-05-03T14:03:16.275Z,2086.88
2023-05-03T14:04:16.193Z,2120.63
2023-05-03T14:05:16.179Z,2188.13
2023-05-03T14:06:16.139Z,2261.25
2023-05-03T14:07:16.129Z,2401.88
2023-05-03T14:08:16.146Z,2418.75
2023-05-03T14:09:16.117Z,2452.50
2023-05-03T14:10:16.130Z,2632.50
2023-05-03T14:11:16.143Z,2649.38
2023-05-03T14:12:16.123Z,2390.63
2023-05-03T14:13:16.152Z,2503.13
2023-05-03T14:14:16.078Z,3206.25
2023-05-03T14:15:16.076Z,3397.50
2023-05-03T14:16:21.821Z,3189.38
2023-05-03T14:17:16.146Z,3110.63
2023-05-03T14:18:16.120Z,2970.00
2023-05-03T14:19:16.128Z,2975.63
2023-05-03T14:20:16.045Z,3048.75
2023-05-03T14:21:16.065Z,2958.75
2023-05-03T14:22:16.031Z,3076.88
2023-05-03T14:23:16.070Z,3105.00
2023-05-03T14:24:16.045Z,2970.00
2023-05-03T14:25:16.041Z,2823.75
2023-05-03T14:26:16.030Z,2750.63
2023-05-03T14:27:16.015Z,2970.00
2023-05-03T14:28:15.996Z,2891.25
2023-05-03T14:29:16.028Z,2756.25
2023-05-03T14:30:15.993Z,2773.13
2023-05-03T14:31:16.042Z,2767.50
2023-05-03T14:32:15.997Z,2722.50
2023-05-03T14:33:16.034Z,2694.38
2023-05-03T14:34:16.001Z,2745.00
2023-05-03T14:35:15.988Z,2711.25
2023-05-03T14:36:15.953Z,2655.00
2023-05-03T14:37:15.954Z,2722.50
2023-05-03T14:38:15.972Z,2660.63
2023-05-03T14:39:15.957Z,2660.63
2023-05-03T14:40:15.931Z,2688.75
2023-05-03T14:41:15.954Z,2632.50
2023-05-03T14:42:15.951Z,2643.75
2023-05-03T14:43:15.960Z,2688.75
2023-05-03T14:44:15.922Z,2773.13
2023-05-03T14:45:15.924Z,2716.88
2023-05-03T14:46:15.944Z,2745.00
2023-05-03T14:47:15.924Z,2851.88
2023-05-03T14:48:15.893Z,2851.88
2023-05-03T14:49:15.928Z,2936.25
2023-05-03T14:50:15.895Z,2694.38
2023-05-03T14:51:15.914Z,2677.50
2023-05-03T14:52:15.900Z,2761.88
2023-05-03T14:53:15.905Z,2756.25
2023-05-03T14:54:15.877Z,2733.75
2023-05-03T14:55:15.888Z,2790.00
2023-05-03T14:56:15.898Z,2840.63
2023-05-03T14:57:15.882Z,2857.50
2023-05-03T14:58:16.079Z,2750.63
2023-05-03T14:59:15.888Z,2666.25
2023-05-03T15:00:15.865Z,2739.38
2023-05-03T15:01:15.893Z,2818.13
2023-05-03T15:02:15.860Z,2863.13
2023-05-03T15:03:15.890Z,2829.38
2023-05-03T15:04:15.864Z,2700.00
2023-05-03T15:05:15.832Z,2694.38
2023-05-03T15:06:15.839Z,2829.38
2023-05-03T15:07:15.866Z,2829.38
2023-05-03T15:08:15.851Z,2868.75
2023-05-03T15:09:15.831Z,2818.13
2023-05-03T15:10:15.809Z,2953.13
2023-05-03T15:11:15.828Z,3037.50
2023-05-03T15:12:15.824Z,2874.38
2023-05-03T15:13:16.135Z,2615.63
2023-05-03T15:14:15.912Z,2666.25
2023-05-03T15:15:15.817Z,2728.13
2023-05-03T15:16:15.834Z,2593.13
2023-05-03T15:17:15.866Z,2463.75
2023-05-03T15:18:15.845Z,2469.38
2023-05-03T15:19:15.834Z,2385.00
2023-05-03T15:20:15.793Z,2497.50
2023-05-03T15:21:15.777Z,2593.13
2023-05-03T15:22:15.785Z,2570.63
2023-05-03T15:23:15.796Z,2806.88
2023-05-03T15:24:15.788Z,2671.88
2023-05-03T15:25:15.814Z,2520.00
2023-05-03T15:26:15.756Z,2548.13
2023-05-03T15:27:15.774Z,2688.75
2023-05-03T15:28:15.765Z,2649.38
2023-05-03T15:29:15.804Z,2531.25
2023-05-03T15:30:15.777Z,2475.00
2023-05-03T15:31:15.810Z,2491.88
2023-05-03T15:32:15.749Z,2486.25
2023-05-03T15:33:15.805Z,2475.00
2023-05-03T15:34:15.735Z,2458.13
2023-05-03T15:35:15.739Z,2508.75
2023-05-03T15:36:15.757Z,2576.25
2023-05-03T15:37:15.760Z,2536.88
2023-05-03T15:38:15.842Z,2401.88
2023-05-03T15:39:15.774Z,2244.38
2023-05-03T15:40:15.723Z,2396.25
2023-05-03T15:41:15.762Z,2379.38
2023-05-03T15:42:15.704Z,2205.00
2023-05-03T15:43:15.706Z,2227.50
2023-05-03T15:44:15.741Z,2323.13
2023-05-03T15:45:15.735Z,2261.25
2023-05-03T15:46:15.849Z,2306.25
2023-05-03T15:47:15.714Z,2340.00
2023-05-03T15:48:15.792Z,2272.50
2023-05-03T15:49:15.694Z,2244.38
2023-05-03T15:50:15.796Z,2210.63
2023-05-03T15:51:15.705Z,2092.50
2023-05-03T15:52:15.686Z,2047.50
2023-05-03T15:53:15.702Z,2058.75
2023-05-03T15:54:15.690Z,2182.50
2023-05-03T15:55:15.682Z,2272.50
2023-05-03T15:56:15.694Z,2205.00
2023-05-03T15:57:15.672Z,2182.50
2023-05-03T15:58:15.803Z,2176.88
2023-05-03T15:59:15.677Z,2171.25
2023-05-03T16:00:15.675Z,2058.75
2023-05-03T16:01:15.782Z,2216.25
2023-05-03T16:02:15.654Z,2250.00
2023-05-03T16:03:15.741Z,2244.38
2023-05-03T16:04:15.688Z,2266.88
2023-05-03T16:05:15.702Z,2205.00
2023-05-03T16:06:15.692Z,2199.38
2023-05-03T16:07:15.668Z,1648.13
2023-05-03T16:08:15.646Z,2227.50
2023-05-03T16:09:15.704Z,2182.50
2023-05-03T16:10:15.661Z,2328.75
2023-05-03T16:11:15.717Z,2407.50
2023-05-03T16:12:15.715Z,2075.63
2023-05-03T16:13:15.904Z,1884.38
2023-05-03T16:14:15.724Z,1884.38
2023-05-03T16:15:15.773Z,2131.88
2023-05-03T16:16:15.741Z,2182.50
2023-05-03T16:17:15.780Z,1783.13
2023-05-03T16:18:15.745Z,1080.00
2023-05-03T16:19:15.635Z,2115.00
2023-05-03T16:20:15.629Z,2075.63
2023-05-03T16:21:15.634Z,2086.88
2023-05-03T16:22:15.651Z,2148.75
2023-05-03T16:23:15.612Z,2109.38
2023-05-03T16:24:15.609Z,2109.38
2023-05-03T16:25:15.615Z,2075.63
2023-05-03T16:26:15.622Z,2064.38
2023-05-03T16:27:15.623Z,2171.25
2023-05-03T16:28:15.617Z,2103.75
2023-05-03T16:29:15.608Z,2036.25
2023-05-03T16:30:15.601Z,2008.13
2023-05-03T16:31:15.688Z,1946.25
2023-05-03T16:32:15.624Z,1906.88
2023-05-03T16:33:15.612Z,1901.25
2023-05-03T16:34:15.592Z,1873.13
2023-05-03T16:35:15.606Z,1861.88
2023-05-03T16:36:15.593Z,1963.13
2023-05-03T16:37:15.559Z,1935.00
2023-05-03T16:38:15.596Z,1867.50
2023-05-03T16:39:15.559Z,1873.13
2023-05-03T16:40:15.587Z,1822.50
2023-05-03T16:41:15.568Z,1856.25
2023-05-03T16:42:15.576Z,1794.38
2023-05-03T16:43:15.603Z,1732.50
2023-05-03T16:44:15.550Z,1603.13
2023-05-03T16:45:15.540Z,1861.88
2023-05-03T16:46:15.606Z,1535.63
2023-05-03T16:47:15.535Z,1743.75
2023-05-03T16:48:15.663Z,1732.50
2023-05-03T16:49:15.522Z,1693.13
2023-05-03T16:50:15.552Z,1558.13
2023-05-03T16:51:15.522Z,1507.50
2023-05-03T16:52:15.560Z,1310.63
2023-05-03T16:53:15.536Z,1226.25
2023-05-03T16:54:15.507Z,900.00
2023-05-03T16:55:15.514Z,646.88
2023-05-03T16:56:15.520Z,523.13
2023-05-03T16:57:15.490Z,405.00
2023-05-03T16:58:15.509Z,416.25
2023-05-03T16:59:15.488Z,382.50
2023-05-03T17:00:15.495Z,483.75
2023-05-03T17:01:15.507Z,585.00
2023-05-03T17:02:15.507Z,691.88
2023-05-03T17:03:15.708Z,562.50
2023-05-03T17:04:15.488Z,523.13
2023-05-03T17:05:15.426Z,489.38
2023-05-03T17:06:15.458Z,416.25
2023-05-03T17:07:15.438Z,365.63
2023-05-03T17:08:15.451Z,331.88
2023-05-03T17:09:15.443Z,292.50
2023-05-03T17:10:15.398Z,258.75
2023-05-03T17:11:15.405Z,258.75
2023-05-03T17:12:15.376Z,253.13
2023-05-03T17:13:15.413Z,253.13
2023-05-03T17:17:01.523Z,241.88
2023-05-03T17:18:04.220Z,241.88
